Tyson, Vermont
Current Conditions -  °F | °C
As of 9:54 AM on Friday 19 Dec 2014 (Local Time) from KVSF Reporting Station
Overcast Overcast  
Wind Chill: 21°   Ceiling: 2800
Heat Index: 30°   Visibility: 10mi
Dew Point: 20°   Wind: 10mph
Humidity: 66%   Direction: 290°WNW
Pressure: 29.98"   Gusts: 16mph
Location:  43.3729°N, 72.7116°W
Report Text: KVSF 191454Z AUTO 29009G14KT 10SM OVC028 M01/M07 A2998 RMK AO2 SLP161 T10111067 51016 TSNO
Loading
Personal Weather Stations






























Interactive Weather Map New forecast layout! Learn more

10-Day Weather Forecast

Advertisements
Track Severe Weather on mobile